Time;durP1;ratioP1;P1;durP2;ratioP2;P2;SDS_P1;SDS_P2;PMS_P1;PMS_P2;Temp;Humidity;BMP_temperature;BMP_pressure;BME280_temperature;BME280_humidity;BME280_pressure;Samples;Min_cycle;Max_cycle;Signal;HPM_P1;HPM_P2
2023/06/19 00:00:30;;;;;;;25.20;17.30;;;;;;;14.53;87.79;100123.13;4247321;28;20247;-76
2023/06/19 00:02:59;;;;;;;24.33;17.97;;;;;;;14.29;87.54;100126.00;4256531;28;20237;-78
2023/06/19 00:05:26;;;;;;;29.17;18.53;;;;;;;14.09;88.48;100127.31;4239983;28;22236;-76
2023/06/19 00:07:53;;;;;;;22.93;16.90;;;;;;;14.08;88.81;100132.94;4241514;28;22319;-77
2023/06/19 00:10:19;;;;;;;27.50;17.70;;;;;;;14.15;89.07;100133.03;4228461;28;20238;-75
2023/06/19 00:12:46;;;;;;;25.10;17.03;;;;;;;14.23;88.09;100133.88;4248219;28;20294;-76
2023/06/19 00:15:14;;;;;;;24.60;16.67;;;;;;;14.30;88.58;100135.88;4243604;28;20247;-75
2023/06/19 00:17:41;;;;;;;24.60;16.97;;;;;;;14.32;89.08;100140.09;4234585;28;20823;-77
2023/06/19 00:20:09;;;;;;;27.97;17.70;;;;;;;14.35;89.42;100141.63;4253411;28;21883;-77
2023/06/19 00:22:35;;;;;;;26.93;17.57;;;;;;;14.40;88.40;100139.19;4241288;28;21148;-78
2023/06/19 00:25:02;;;;;;;23.93;17.97;;;;;;;14.47;86.96;100148.34;4260195;28;20238;-78
2023/06/19 00:27:29;;;;;;;23.07;16.50;;;;;;;14.39;86.89;100138.34;4248212;28;20351;-76
2023/06/19 00:30:01;;;;;;;25.03;17.57;;;;;;;14.40;86.96;100139.19;4245927;28;21664;-76
2023/06/19 00:32:31;;;;;;;23.87;16.83;;;;;;;14.36;87.21;100144.16;4229735;28;20230;-77
2023/06/19 00:35:00;;;;;;;29.43;17.30;;;;;;;14.35;87.13;100136.16;4248681;28;20302;-76
2023/06/19 00:37:32;;;;;;;22.47;16.13;;;;;;;14.27;87.37;100137.91;4256763;28;20235;-76
2023/06/19 00:39:59;;;;;;;26.13;17.00;;;;;;;14.38;86.90;100138.53;4236509;28;21154;-77
2023/06/19 00:42:25;;;;;;;22.50;16.33;;;;;;;14.35;87.04;100142.44;4246345;28;20309;-79
2023/06/19 00:44:52;;;;;;;21.53;16.33;;;;;;;14.26;87.53;100144.38;4244539;28;21754;-77
2023/06/19 00:47:18;;;;;;;21.33;15.50;;;;;;;14.32;87.78;100147.41;4246629;28;20676;-77
2023/06/19 00:49:45;;;;;;;22.53;15.37;;;;;;;14.28;87.73;100149.66;4243469;28;20335;-77
2023/06/19 00:52:12;;;;;;;20.47;15.67;;;;;;;14.24;87.69;100142.88;4252101;28;22159;-75
2023/06/19 00:54:38;;;;;;;24.83;16.40;;;;;;;14.19;88.58;100153.47;4242068;28;21148;-76
2023/06/19 00:57:05;;;;;;;23.73;15.97;;;;;;;14.19;88.44;100148.84;4241013;28;20429;-76
2023/06/19 00:59:32;;;;;;;19.87;15.27;;;;;;;14.19;88.43;100142.56;4245050;28;20231;-76
2023/06/19 01:01:59;;;;;;;22.83;15.33;;;;;;;14.14;88.61;100134.06;4245349;28;20276;-75
2023/06/19 01:04:26;;;;;;;23.07;16.13;;;;;;;14.16;88.18;100142.91;4244596;28;20577;-76
2023/06/19 01:07:09;;;;;;;23.63;15.40;;;;;;;14.19;88.04;100139.84;4249221;28;20608;-77
2023/06/19 01:09:45;;;;;;;26.10;15.73;;;;;;;14.20;87.79;100138.81;4248333;28;20628;-76
2023/06/19 01:12:24;;;;;;;24.77;16.00;;;;;;;14.16;87.16;100127.41;4249075;28;20671;-76
2023/06/19 01:14:59;;;;;;;24.10;16.13;;;;;;;14.29;86.56;100134.16;4232834;28;20303;-77
2023/06/19 01:17:27;;;;;;;21.20;14.20;;;;;;;14.21;87.64;100137.78;4250883;28;20312;-77
2023/06/19 01:19:58;;;;;;;21.97;15.30;;;;;;;14.15;88.25;100133.03;4240199;28;20234;-76
2023/06/19 01:22:25;;;;;;;20.77;14.10;;;;;;;14.10;88.16;100136.31;4267081;28;20261;-77
2023/06/19 01:24:52;;;;;;;22.30;14.60;;;;;;;14.13;87.91;100135.09;4252656;28;20223;-76
2023/06/19 01:27:18;;;;;;;22.27;14.23;;;;;;;13.98;88.02;100126.84;4255774;28;20241;-77
2023/06/19 01:29:45;;;;;;;21.70;15.37;;;;;;;13.96;88.89;100127.03;4234009;28;21198;-77
2023/06/19 01:32:21;;;;;;;22.43;14.37;;;;;;;13.93;89.40;100125.50;4257794;28;20234;-77
2023/06/19 01:34:49;;;;;;;20.47;14.83;;;;;;;13.89;88.91;100132.31;4251515;28;20242;-76
2023/06/19 01:37:16;;;;;;;22.60;15.03;;;;;;;13.99;89.13;100126.66;4235461;28;21125;-77
2023/06/19 01:39:44;;;;;;;22.03;15.53;;;;;;;13.99;88.98;100134.00;4260396;28;20245;-78
2023/06/19 01:42:12;;;;;;;22.07;14.37;;;;;;;13.97;88.80;100144.19;4251813;28;20316;-77
2023/06/19 01:44:38;;;;;;;21.50;15.40;;;;;;;13.89;88.55;100134.22;4247141;28;21541;-77
2023/06/19 01:47:10;;;;;;;21.00;14.30;;;;;;;13.91;89.07;100134.84;4250190;28;20235;-77
2023/06/19 01:49:37;;;;;;;19.20;13.93;;;;;;;13.90;88.82;100146.75;4263146;28;22140;-79
2023/06/19 01:52:04;;;;;;;21.17;14.77;;;;;;;13.97;88.69;100127.88;4248925;28;20581;-78
2023/06/19 01:54:31;;;;;;;21.83;13.43;;;;;;;13.90;88.50;100136.75;4244197;28;20304;-79
2023/06/19 01:57:00;;;;;;;25.47;14.37;;;;;;;13.94;88.97;100138.06;4247153;28;21619;-77
2023/06/19 01:59:27;;;;;;;20.13;13.37;;;;;;;14.03;88.11;100127.16;4260690;28;20553;-77
2023/06/19 02:01:53;;;;;;;18.90;13.40;;;;;;;13.98;88.04;100127.69;4247566;28;20676;-75
2023/06/19 02:04:20;;;;;;;22.33;14.27;;;;;;;13.84;88.59;100133.88;4245881;28;20314;-79
2023/06/19 02:06:47;;;;;;;19.20;13.27;;;;;;;13.74;89.03;100126.78;4246990;28;20251;-77
2023/06/19 02:09:13;;;;;;;20.13;14.53;;;;;;;13.82;88.76;100127.78;4258065;28;20327;-77
2023/06/19 02:11:40;;;;;;;23.03;14.63;;;;;;;13.84;89.22;100133.88;4263767;28;20253;-77
2023/06/19 02:14:09;;;;;;;20.77;14.43;;;;;;;13.78;88.39;100127.28;4259619;28;21779;-75
2023/06/19 02:16:35;;;;;;;18.13;13.77;;;;;;;13.71;89.05;100138.00;4262078;28;20231;-77
2023/06/19 02:19:02;;;;;;;17.53;13.07;;;;;;;13.74;88.70;100139.53;4272646;28;20227;-77
2023/06/19 02:21:29;;;;;;;20.57;14.00;;;;;;;13.70;88.83;100140.91;4249190;28;20330;-77
2023/06/19 02:23:55;;;;;;;19.70;13.90;;;;;;;13.75;88.50;100138.50;4246259;28;20229;-77
2023/06/19 02:26:22;;;;;;;20.73;13.83;;;;;;;13.74;88.75;100136.81;4240905;28;20232;-76
2023/06/19 02:28:48;;;;;;;21.57;13.53;;;;;;;13.81;89.20;100140.53;4238053;28;20239;-78
2023/06/19 02:31:15;;;;;;;20.77;14.43;;;;;;;13.77;88.34;100145.47;4230445;28;22422;-76
2023/06/19 02:33:41;;;;;;;20.03;14.27;;;;;;;13.82;88.93;100141.38;4244461;28;20235;-76
2023/06/19 02:36:08;;;;;;;20.80;13.80;;;;;;;13.84;88.32;100142.03;4218711;28;25422;-79
2023/06/19 02:38:35;;;;;;;20.30;14.63;;;;;;;13.73;89.01;100141.41;4237209;28;20591;-77
2023/06/19 02:41:02;;;;;;;19.10;13.60;;;;;;;13.73;88.61;100135.97;4231046;28;20307;-76
2023/06/19 02:43:29;;;;;;;25.27;13.43;;;;;;;13.83;88.11;100129.44;4230390;28;20261;-77
2023/06/19 02:45:56;;;;;;;22.43;13.83;;;;;;;13.65;87.68;100129.69;4244979;28;20343;-76
2023/06/19 02:48:24;;;;;;;17.87;13.03;;;;;;;13.66;88.18;100137.69;4261742;28;20228;-75
2023/06/19 02:50:50;;;;;;;21.50;13.67;;;;;;;13.60;87.93;100132.94;4244696;28;20245;-77
2023/06/19 02:53:17;;;;;;;19.83;13.87;;;;;;;13.56;88.55;100127.00;4249491;28;20431;-77
2023/06/19 02:55:44;;;;;;;20.57;14.43;;;;;;;13.67;88.51;100141.25;4246639;28;21789;-77
2023/06/19 02:58:10;;;;;;;20.93;14.30;;;;;;;13.67;88.85;100127.66;4263217;28;20315;-77
2023/06/19 03:00:37;;;;;;;19.33;13.07;;;;;;;13.75;89.02;100139.34;4274133;28;20238;-77
2023/06/19 03:03:04;;;;;;;20.67;13.80;;;;;;;13.89;88.55;100135.03;4261023;28;21145;-77
2023/06/19 03:05:31;;;;;;;23.27;12.60;;;;;;;14.05;87.54;100139.56;4292777;28;20468;-76
2023/06/19 03:07:58;;;;;;;17.13;12.77;;;;;;;14.06;87.50;100143.97;4260539;28;21628;-77
2023/06/19 03:10:25;;;;;;;19.23;13.53;;;;;;;14.07;87.53;100156.56;4265633;28;20656;-77
2023/06/19 03:12:52;;;;;;;22.50;14.17;;;;;;;14.07;87.23;100142.94;4254523;28;20223;-79
2023/06/19 03:15:19;;;;;;;23.17;14.40;;;;;;;13.99;86.69;100148.44;4255425;28;20228;-75
2023/06/19 03:17:46;;;;;;;20.13;13.63;;;;;;;14.01;87.84;100140.13;4262504;28;20257;-76
2023/06/19 03:20:13;;;;;;;19.67;12.93;;;;;;;14.15;87.62;100152.97;4255588;28;21179;-77
2023/06/19 03:22:42;;;;;;;28.13;15.07;;;;;;;14.17;87.27;100147.34;4256284;28;20235;-77
2023/06/19 03:25:09;;;;;;;19.07;13.20;;;;;;;14.25;86.85;100150.84;4248089;28;20570;-77
2023/06/19 03:27:36;;;;;;;17.10;12.27;;;;;;;14.26;86.92;100152.56;4269020;28;20237;-77
2023/06/19 03:30:08;;;;;;;18.63;13.63;;;;;;;14.26;86.69;100157.16;4266980;28;20240;-77
2023/06/19 03:32:34;;;;;;;23.30;13.17;;;;;;;14.26;86.76;100162.63;4257029;28;20314;-79
2023/06/19 03:35:01;;;;;;;17.47;12.50;;;;;;;14.46;86.35;100157.56;4250359;28;20246;-75
2023/06/19 03:37:29;;;;;;;17.67;12.10;;;;;;;14.49;85.90;100159.06;4256349;28;20231;-76
2023/06/19 03:39:56;;;;;;;16.83;12.37;;;;;;;14.52;86.25;100166.88;4254697;28;20314;-78
2023/06/19 03:42:24;;;;;;;17.83;13.30;;;;;;;14.55;86.17;100163.78;4241590;28;20290;-75
2023/06/19 03:44:50;;;;;;;20.27;13.23;;;;;;;14.62;86.34;100166.63;4254639;28;20255;-76
2023/06/19 03:47:17;;;;;;;18.47;12.90;;;;;;;14.76;85.52;100165.03;4244871;28;20234;-74
2023/06/19 03:49:43;;;;;;;20.63;14.67;;;;;;;14.64;85.26;100167.31;4232483;28;20337;-79
2023/06/19 03:52:10;;;;;;;19.07;12.83;;;;;;;14.70;85.85;100167.47;4252097;28;20238;-77
2023/06/19 03:54:37;;;;;;;21.43;14.63;;;;;;;14.85;85.46;100172.97;4264002;28;20451;-76
2023/06/19 03:57:04;;;;;;;18.67;13.63;;;;;;;14.94;85.03;100170.19;4253162;28;20236;-75
2023/06/19 03:59:30;;;;;;;17.30;12.33;;;;;;;14.81;85.83;100163.47;4223443;28;20232;-74
2023/06/19 04:02:00;;;;;;;16.77;12.10;;;;;;;14.92;85.73;100159.47;4225351;28;20234;-75
2023/06/19 04:04:27;;;;;;;20.13;13.60;;;;;;;14.95;85.12;100156.38;4223381;28;20320;-77
2023/06/19 04:06:53;;;;;;;23.53;13.93;;;;;;;14.87;84.85;100157.28;4217051;28;20238;-76
2023/06/19 04:09:20;;;;;;;17.53;12.80;;;;;;;14.99;84.93;100157.72;4240898;28;20317;-71
2023/06/19 04:11:47;;;;;;;16.07;11.57;;;;;;;15.07;84.87;100155.94;4229062;28;20535;-71
2023/06/19 04:14:13;;;;;;;17.97;13.50;;;;;;;15.15;84.42;100155.88;4227160;28;21191;-71
2023/06/19 04:16:40;;;;;;;16.73;11.47;;;;;;;15.35;83.80;100161.66;4233051;28;20627;-70
2023/06/19 04:19:06;;;;;;;15.33;11.70;;;;;;;15.49;83.19;100152.63;4234083;28;20608;-68
2023/06/19 04:21:33;;;;;;;18.07;13.87;;;;;;;15.52;82.19;100151.41;4230707;28;20384;-67
2023/06/19 04:24:00;;;;;;;17.90;13.30;;;;;;;15.33;82.26;100159.09;4233886;28;21857;-69
2023/06/19 04:26:26;;;;;;;18.13;13.20;;;;;;;15.50;81.35;100154.34;4230750;28;20929;-72
2023/06/19 04:28:53;;;;;;;18.13;12.37;;;;;;;15.75;81.06;100162.22;4234040;28;21798;-69
2023/06/19 04:31:19;;;;;;;21.63;14.50;;;;;;;15.96;79.64;100163.41;4224989;28;20797;-72
2023/06/19 04:33:46;;;;;;;18.23;13.93;;;;;;;15.73;79.59;100158.00;4231007;28;20228;-70
2023/06/19 04:36:14;;;;;;;19.17;13.30;;;;;;;15.87;79.72;100159.06;4241532;28;20235;-68
2023/06/19 04:38:41;;;;;;;17.35;12.43;;;;;;;16.41;78.74;100155.09;4221394;28;20440;-68
2023/06/19 04:41:08;;;;;;;19.60;13.00;;;;;;;16.51;77.74;100161.13;4233685;28;20231;-69
2023/06/19 04:43:35;;;;;;;19.30;14.00;;;;;;;16.49;77.35;100152.25;4233631;28;21476;-71
2023/06/19 04:46:03;;;;;;;18.83;12.57;;;;;;;16.80;76.89;100160.13;4221155;28;20440;-69
2023/06/19 04:48:30;;;;;;;18.90;13.60;;;;;;;17.06;75.54;100155.19;4245362;28;20238;-69
2023/06/19 04:51:00;;;;;;;17.83;14.10;;;;;;;16.65;76.00;100162.13;4231582;28;22734;-69
2023/06/19 04:53:27;;;;;;;19.33;14.40;;;;;;;16.45;76.62;100161.91;4227855;28;21216;-70
2023/06/19 04:55:55;;;;;;;18.70;13.17;;;;;;;16.69;76.10;100151.63;4225168;28;20240;-68
2023/06/19 04:58:22;;;;;;;19.23;13.37;;;;;;;16.91;75.45;100155.19;4245228;28;20235;-68
2023/06/19 05:00:50;;;;;;;19.80;13.60;;;;;;;17.18;74.32;100153.59;4250159;28;20235;-68
2023/06/19 05:03:18;;;;;;;20.70;14.20;;;;;;;17.03;74.35;100150.91;4249419;28;20838;-68
2023/06/19 05:05:44;;;;;;;19.23;13.10;;;;;;;17.31;73.85;100151.97;4253141;28;21249;-73
2023/06/19 05:08:12;;;;;;;17.67;13.10;;;;;;;17.66;71.68;100155.59;4265226;28;20230;-48
2023/06/19 05:10:38;;;;;;;18.73;13.53;;;;;;;17.89;71.79;100147.13;4240091;28;20249;-52
2023/06/19 05:13:05;;;;;;;18.77;12.70;;;;;;;17.83;71.50;100153.38;4253338;28;21649;-76
2023/06/19 05:15:32;;;;;;;16.70;11.90;;;;;;;18.03;70.75;100149.94;4295067;28;20235;-73
2023/06/19 05:17:58;;;;;;;17.80;12.07;;;;;;;18.41;69.73;100152.19;4283596;28;20231;-75
2023/06/19 05:20:25;;;;;;;15.03;9.80;;;;;;;18.72;67.95;100155.41;4267850;28;21117;-48
2023/06/19 05:22:52;;;;;;;14.87;11.20;;;;;;;19.09;66.00;100165.00;4246853;28;20283;-47
2023/06/19 05:25:19;;;;;;;13.77;9.90;;;;;;;19.86;63.46;100156.28;4291928;28;20288;-74
2023/06/19 05:27:46;;;;;;;17.03;11.67;;;;;;;19.94;63.31;100163.41;4264437;28;20235;-72
2023/06/19 05:30:13;;;;;;;15.87;9.40;;;;;;;20.96;61.04;100176.47;4275795;28;20284;-75
2023/06/19 05:32:40;;;;;;;13.87;9.03;;;;;;;21.57;58.56;100167.69;4269739;28;20342;-76
2023/06/19 05:35:07;;;;;;;13.03;8.13;;;;;;;22.29;55.80;100176.25;4267411;28;20236;-73
2023/06/19 05:37:34;;;;;;;14.43;9.20;;;;;;;22.95;53.30;100186.63;4292610;28;20312;-77
2023/06/19 05:40:01;;;;;;;13.43;8.83;;;;;;;23.43;52.92;100179.28;4304694;28;20223;-77
2023/06/19 05:42:27;;;;;;;11.03;7.70;;;;;;;23.79;51.95;100187.59;4331924;28;21124;-74
2023/06/19 05:44:54;;;;;;;16.10;7.67;;;;;;;24.56;50.83;100186.50;4253605;28;20301;-78
2023/06/19 05:47:23;;;;;;;12.73;8.33;;;;;;;25.02;47.74;100192.06;4289484;28;20302;-73
2023/06/19 05:49:50;;;;;;;11.70;8.77;;;;;;;25.33;47.03;100200.06;4320693;28;20621;-78
2023/06/19 05:52:17;;;;;;;15.13;9.17;;;;;;;25.40;47.20;100195.25;4293163;28;20227;-73
2023/06/19 05:54:43;;;;;;;18.33;9.17;;;;;;;24.14;48.84;100203.31;4272481;28;22854;-76
2023/06/19 05:57:11;;;;;;;14.03;7.70;;;;;;;24.78;49.45;100205.19;4253871;28;20670;-73
2023/06/19 05:59:38;;;;;;;11.23;8.10;;;;;;;26.10;45.04;100213.22;4261871;28;20689;-74
2023/06/19 06:02:06;;;;;;;18.00;9.50;;;;;;;23.71;50.85;100214.50;4246595;28;20335;-72
2023/06/19 06:04:33;;;;;;;13.27;8.30;;;;;;;25.66;46.73;100212.25;4264362;28;22076;-74
2023/06/19 06:07:00;;;;;;;11.47;6.63;;;;;;;26.78;43.59;100214.88;4251375;28;20749;-72
2023/06/19 06:09:27;;;;;;;9.02;7.13;;;;;;;27.26;42.67;100215.09;4240950;28;20831;-73
2023/06/19 06:11:53;;;;;;;11.40;7.80;;;;;;;25.74;46.26;100221.00;4255829;28;23259;-76
2023/06/19 06:14:20;;;;;;;9.07;6.67;;;;;;;26.43;45.72;100221.69;4272784;28;21242;-73
2023/06/19 06:16:47;;;;;;;14.57;8.77;;;;;;;26.37;44.57;100223.53;4253878;28;20246;-77
2023/06/19 06:19:14;;;;;;;10.90;8.03;;;;;;;27.00;43.53;100234.28;4254339;28;20234;-74
2023/06/19 06:21:40;;;;;;;8.37;6.20;;;;;;;28.14;41.60;100233.28;4255780;28;20395;-75
2023/06/19 06:24:07;;;;;;;11.97;8.90;;;;;;;26.39;44.62;100238.00;4267381;28;21559;-74
2023/06/19 06:26:35;;;;;;;13.53;8.63;;;;;;;25.25;46.95;100243.72;4238626;28;20235;-71
2023/06/19 06:29:02;;;;;;;13.87;8.20;;;;;;;26.98;43.53;100232.88;4253660;28;20938;-75
2023/06/19 06:31:28;;;;;;;11.63;7.40;;;;;;;28.67;40.01;100240.72;4263274;28;22138;-75
2023/06/19 06:33:55;;;;;;;10.77;7.17;;;;;;;29.44;38.56;100236.47;4307710;28;20241;-72
2023/06/19 06:36:21;;;;;;;13.63;8.70;;;;;;;30.31;36.01;100246.66;4250073;28;21048;-77
2023/06/19 06:39:02;;;;;;;14.55;9.25;;;;;;;27.97;41.22;100239.00;4239899;28;20241;-74
2023/06/19 06:41:29;;;;;;;17.23;9.93;;;;;;;28.42;40.56;100242.34;4247835;28;22263;-72
2023/06/19 06:43:56;;;;;;;11.93;8.48;;;;;;;27.96;41.88;100247.63;4245051;28;21733;-70
2023/06/19 06:46:24;;;;;;;15.88;7.75;;;;;;;30.66;35.88;100242.09;4239795;28;20273;-68
2023/06/19 06:48:50;;;;;;;12.65;8.52;;;;;;;30.21;36.27;100244.75;4240713;28;20680;-68
2023/06/19 06:51:17;;;;;;;9.55;6.88;;;;;;;32.29;33.08;100250.63;4256216;28;20342;-68
2023/06/19 06:53:44;;;;;;;10.52;6.43;;;;;;;32.62;32.51;100242.34;4240951;28;21346;-68
2023/06/19 06:56:11;;;;;;;10.48;7.43;;;;;;;30.33;35.74;100245.25;4254744;28;20238;-70
2023/06/19 06:58:39;;;;;;;12.77;8.60;;;;;;;28.54;38.36;100239.31;4244844;28;20230;-67
2023/06/19 07:01:05;;;;;;;12.35;7.32;;;;;;;27.58;41.24;100238.44;4250487;28;20311;-69
2023/06/19 07:03:32;;;;;;;12.35;8.77;;;;;;;27.92;40.64;100244.53;4271550;28;20250;-69
2023/06/19 07:05:59;;;;;;;12.80;8.47;;;;;;;29.15;37.96;100232.25;4277066;28;21061;-73
2023/06/19 07:08:25;;;;;;;17.30;8.10;;;;;;;26.69;42.11;100231.16;4282977;28;20231;-71
2023/06/19 07:10:52;;;;;;;12.88;6.35;;;;;;;28.66;39.77;100230.72;4241603;28;20845;-71
2023/06/19 07:13:20;;;;;;;10.77;6.43;;;;;;;28.66;38.73;100225.16;4284763;28;20640;-73
2023/06/19 07:15:46;;;;;;;8.00;6.13;;;;;;;28.79;38.59;100226.59;4240343;28;20239;-73
2023/06/19 07:18:13;;;;;;;8.65;5.75;;;;;;;29.58;37.54;100226.41;4262843;28;20246;-70
2023/06/19 07:20:40;;;;;;;11.03;6.83;;;;;;;30.43;35.66;100222.06;4257985;28;20345;-71
2023/06/19 07:23:06;;;;;;;13.88;7.68;;;;;;;27.75;39.70;100233.59;4253118;28;21774;-72
2023/06/19 07:25:34;;;;;;;10.98;7.32;;;;;;;26.31;42.92;100229.31;4234174;28;20231;-73
2023/06/19 07:28:01;;;;;;;12.67;6.90;;;;;;;26.45;43.41;100229.75;4232802;28;20315;-73
2023/06/19 07:30:27;;;;;;;11.60;6.97;;;;;;;26.51;42.56;100228.72;4262721;28;21663;-73
2023/06/19 07:32:54;;;;;;;11.80;7.30;;;;;;;27.15;41.31;100224.44;4247652;28;20802;-74
2023/06/19 07:35:21;;;;;;;9.07;6.10;;;;;;;27.96;39.92;100228.16;4289544;28;20226;-71
2023/06/19 07:37:47;;;;;;;11.47;6.33;;;;;;;28.50;38.71;100221.47;4258426;28;22160;-70
2023/06/19 07:40:14;;;;;;;9.57;6.83;;;;;;;28.09;39.46;100229.66;4250964;28;21648;-72
2023/06/19 07:42:41;;;;;;;14.40;5.63;;;;;;;28.41;39.33;100232.31;4248988;28;20321;-44
2023/06/19 07:45:13;;;;;;;16.70;7.80;;;;;;;28.32;39.03;100228.34;4267577;28;21796;-71
2023/06/19 07:47:40;;;;;;;13.57;6.93;;;;;;;28.49;38.52;100230.09;4262131;28;21042;-71
2023/06/19 07:50:07;;;;;;;11.18;7.40;;;;;;;27.93;39.73;100226.75;4256217;28;21672;-70
2023/06/19 07:52:34;;;;;;;9.60;7.00;;;;;;;27.37;40.56;100224.34;4243773;28;20230;-72
2023/06/19 07:55:01;;;;;;;8.63;6.50;;;;;;;27.97;38.47;100230.66;4273556;28;21713;-70
2023/06/19 07:57:28;;;;;;;7.37;6.07;;;;;;;27.87;38.91;100235.31;4244368;28;20249;-72
2023/06/19 07:59:54;;;;;;;8.27;5.80;;;;;;;28.34;37.82;100228.94;4271357;28;20234;-71
2023/06/19 08:02:21;;;;;;;7.73;5.60;;;;;;;28.91;37.43;100235.56;4269042;28;21740;-70
2023/06/19 08:04:48;;;;;;;9.55;6.60;;;;;;;27.83;38.40;100241.41;4245806;28;21572;-72
2023/06/19 08:07:15;;;;;;;10.30;6.23;;;;;;;27.63;39.91;100235.69;4262097;28;20227;-71
2023/06/19 08:09:45;;;;;;;9.33;6.47;;;;;;;27.05;40.41;100239.88;4278715;28;20640;-70
2023/06/19 08:12:26;;;;;;;9.37;6.93;;;;;;;25.62;44.21;100234.09;4264537;28;21098;-71
2023/06/19 08:14:52;;;;;;;8.60;5.80;;;;;;;26.29;43.70;100235.09;4249370;28;22010;-71
2023/06/19 08:17:19;;;;;;;11.63;6.40;;;;;;;27.36;40.11;100240.19;4265348;28;21575;-70
2023/06/19 08:19:46;;;;;;;11.57;8.20;;;;;;;27.21;40.32;100234.47;4283834;28;20700;-72
2023/06/19 08:22:13;;;;;;;10.23;7.27;;;;;;;27.22;40.21;100233.38;4270876;28;21167;-72
2023/06/19 08:24:40;;;;;;;6.60;5.30;;;;;;;27.50;38.16;100225.84;4257835;28;20289;-71
2023/06/19 08:27:07;;;;;;;7.00;4.63;;;;;;;27.37;37.52;100235.47;4278945;28;20411;-72
2023/06/19 08:29:34;;;;;;;7.37;4.80;;;;;;;26.76;39.70;100227.34;4264832;28;20227;-70
2023/06/19 08:32:01;;;;;;;7.00;5.10;;;;;;;27.05;38.57;100236.28;4285356;28;20695;-71
2023/06/19 08:34:28;;;;;;;6.90;4.90;;;;;;;27.06;38.62;100237.97;4255216;28;20245;-70
2023/06/19 08:36:55;;;;;;;5.67;4.37;;;;;;;26.75;39.24;100237.59;4254878;28;22180;-74
2023/06/19 08:39:22;;;;;;;9.97;5.67;;;;;;;27.07;38.64;100236.00;4249900;28;21062;-72
2023/06/19 08:41:49;;;;;;;6.63;4.63;;;;;;;27.66;37.93;100236.00;4284470;28;20245;-72
2023/06/19 08:44:15;;;;;;;6.97;5.40;;;;;;;27.35;39.32;100235.72;4275816;28;20342;-72
2023/06/19 08:46:42;;;;;;;7.97;5.60;;;;;;;27.47;38.41;100231.97;4260171;28;20999;-72
2023/06/19 08:49:12;;;;;;;9.32;5.10;;;;;;;25.66;41.93;100226.97;4267303;28;20296;-71
2023/06/19 08:51:40;;;;;;;10.03;5.63;;;;;;;25.43;43.30;100236.28;4260988;28;21774;-72
2023/06/19 08:54:08;;;;;;;7.10;5.47;;;;;;;25.29;43.99;100236.59;4258319;28;20483;-71
2023/06/19 08:56:37;;;;;;;8.83;4.53;;;;;;;26.12;40.20;100242.63;4251973;28;20227;-70
2023/06/19 08:59:11;;;;;;;6.60;4.47;;;;;;;26.02;39.48;100244.13;4249879;28;20284;-71
2023/06/19 09:01:39;;;;;;;8.37;4.70;;;;;;;25.06;43.23;100236.72;4262147;28;20238;-72
2023/06/19 09:04:13;;;;;;;6.60;4.80;;;;;;;24.81;42.96;100237.94;4251386;28;20230;-72
2023/06/19 09:06:54;;;;;;;9.57;4.17;;;;;;;25.91;40.62;100245.94;4254524;28;25616;-69
2023/06/19 09:09:22;;;;;;;6.83;4.67;;;;;;;26.12;39.29;100240.69;4259029;28;20370;-71
2023/06/19 09:12:10;;;;;;;8.83;4.97;;;;;;;25.95;39.90;100238.75;4250257;28;20237;-70
2023/06/19 09:14:41;;;;;;;8.57;4.07;;;;;;;26.05;38.48;100229.78;4275092;28;22490;-71
2023/06/19 09:17:12;;;;;;;7.80;4.50;;;;;;;25.47;42.39;100234.69;4250211;28;20531;-71
2023/06/19 09:19:50;;;;;;;7.87;4.77;;;;;;;25.47;40.62;100232.75;4257673;28;21629;-69
2023/06/19 09:22:18;;;;;;;5.83;4.80;;;;;;;24.94;42.16;100242.31;4237928;28;20758;-71
2023/06/19 09:24:45;;;;;;;7.33;4.07;;;;;;;25.28;41.45;100226.59;4253019;28;21964;-70
2023/06/19 09:27:18;;;;;;;5.07;4.07;;;;;;;26.03;40.70;100231.09;4247808;28;21759;-72
2023/06/19 09:29:47;;;;;;;6.20;4.40;;;;;;;26.03;40.65;100228.31;4241150;28;20497;-71
2023/06/19 09:32:21;;;;;;;5.87;3.70;;;;;;;25.85;41.07;100237.78;4239243;28;20238;-71
2023/06/19 09:34:50;;;;;;;5.07;3.57;;;;;;;26.21;39.87;100232.78;4245840;28;21623;-71
2023/06/19 09:37:23;;;;;;;5.60;4.07;;;;;;;25.87;41.19;100239.19;4254376;28;20703;-71
2023/06/19 09:39:59;;;;;;;7.03;4.30;;;;;;;24.85;42.23;100239.09;4250352;28;20310;-72
2023/06/19 09:42:31;;;;;;;6.60;4.17;;;;;;;24.63;42.69;100239.75;4258063;28;21190;-70
2023/06/19 09:45:04;;;;;;;6.43;3.70;;;;;;;24.95;41.84;100244.00;4247048;28;20231;-72
2023/06/19 09:47:43;;;;;;;5.37;3.67;;;;;;;25.00;41.79;100236.63;4251913;28;20238;-72
2023/06/19 09:50:15;;;;;;;6.77;4.07;;;;;;;25.40;41.09;100232.09;4247670;28;21615;-72
2023/06/19 09:52:43;;;;;;;5.07;4.00;;;;;;;25.49;40.95;100232.53;4241424;28;20341;-73
2023/06/19 09:55:13;;;;;;;6.83;4.10;;;;;;;24.81;41.34;100235.16;4240071;28;21325;-73
2023/06/19 09:57:41;;;;;;;8.73;3.70;;;;;;;24.86;41.64;100226.09;4255965;28;21117;-71
2023/06/19 10:00:12;;;;;;;6.27;3.60;;;;;;;25.41;40.27;100224.63;4245724;28;23015;-71
2023/06/19 10:02:43;;;;;;;8.53;4.07;;;;;;;25.89;39.75;100225.91;4231754;28;25754;-70
2023/06/19 10:05:12;;;;;;;4.87;4.20;;;;;;;25.63;39.88;100220.00;4217925;28;20432;-72
2023/06/19 10:07:46;;;;;;;6.13;4.20;;;;;;;25.62;40.36;100218.31;4227963;28;20292;-68
2023/06/19 10:10:24;;;;;;;7.97;4.23;;;;;;;25.51;42.07;100221.19;4229973;28;20271;-74
2023/06/19 10:12:55;;;;;;;6.13;3.97;;;;;;;25.66;41.49;100223.34;4247798;28;20290;-74
2023/06/19 10:15:31;;;;;;;7.03;4.30;;;;;;;25.43;42.05;100216.88;4235841;28;22264;-71
2023/06/19 10:18:02;;;;;;;11.40;4.10;;;;;;;25.78;40.37;100222.16;4234779;28;20292;-71
2023/06/19 10:20:32;;;;;;;7.20;3.77;;;;;;;26.11;38.93;100219.59;4242558;28;20255;-70
2023/06/19 10:23:02;;;;;;;8.27;4.00;;;;;;;26.35;37.74;100222.97;4236174;28;20238;-73
2023/06/19 10:25:33;;;;;;;4.90;3.77;;;;;;;25.76;38.86;100220.75;4254993;28;22987;-72
2023/06/19 10:27:59;;;;;;;6.03;3.83;;;;;;;26.01;38.52;100216.66;4244669;28;21355;-69
2023/06/19 10:30:27;;;;;;;5.30;4.13;;;;;;;25.75;39.85;100219.06;4248617;28;20492;-69
2023/06/19 10:32:53;;;;;;;5.30;3.80;;;;;;;26.18;38.85;100214.69;4237290;28;20490;-71
2023/06/19 10:35:21;;;;;;;6.88;3.75;;;;;;;25.86;39.98;100212.59;4243355;28;20965;-72
2023/06/19 10:37:48;;;;;;;5.80;3.40;;;;;;;26.15;39.94;100209.69;4253674;28;20315;-71
2023/06/19 10:40:15;;;;;;;7.23;4.00;;;;;;;26.39;38.37;100214.97;4234900;28;20233;-70
2023/06/19 10:45:16;;;;;;;6.83;4.27;;;;;;;25.97;38.49;100205.25;4258899;27;21317;-75
2023/06/19 10:47:44;;;;;;;8.20;3.80;;;;;;;25.89;39.51;100206.50;4250032;28;21098;-70
2023/06/19 10:50:14;;;;;;;8.90;5.17;;;;;;;25.51;41.11;100207.31;4253706;28;20302;-71
2023/06/19 10:52:44;;;;;;;9.00;4.17;;;;;;;25.30;41.48;100204.19;4241261;28;21690;-70
2023/06/19 10:55:14;;;;;;;6.90;4.00;;;;;;;25.91;38.72;100206.25;4233083;28;21760;-70
2023/06/19 10:57:45;;;;;;;5.13;4.37;;;;;;;25.96;38.38;100206.34;4247634;28;21792;-70
2023/06/19 11:00:12;;;;;;;6.30;4.20;;;;;;;25.98;38.90;100204.16;4259911;28;20222;-71
2023/06/19 11:02:42;;;;;;;7.23;3.97;;;;;;;26.07;39.68;100201.75;4228424;28;20596;-71
2023/06/19 11:05:11;;;;;;;6.33;4.07;;;;;;;26.07;40.18;100208.16;4248185;28;20307;-71
2023/06/19 11:07:38;;;;;;;7.73;4.43;;;;;;;25.70;40.59;100203.19;4216028;28;21244;-71
2023/06/19 11:10:06;;;;;;;4.93;3.97;;;;;;;26.04;40.20;100205.91;4226983;28;20243;-70
2023/06/19 11:12:34;;;;;;;8.80;3.90;;;;;;;26.28;38.98;100202.91;4231135;28;20237;-71
2023/06/19 11:15:05;;;;;;;5.07;4.07;;;;;;;26.24;38.64;100191.50;4219693;28;20230;-70
2023/06/19 11:17:32;;;;;;;7.00;4.80;;;;;;;26.70;40.10;100196.72;4204496;28;20251;-70
2023/06/19 11:19:59;;;;;;;6.47;4.40;;;;;;;26.98;37.43;100192.03;4216420;28;25644;-70
2023/06/19 11:22:40;;;;;;;4.37;3.70;;;;;;;27.24;36.72;100189.50;4220055;28;20249;-69